createdAt,value
2023-04-04T17:21:23.298Z,101208.03
2023-04-04T17:23:52.579Z,101213.75
2023-04-04T17:26:22.035Z,101196.88
2023-04-04T17:28:51.568Z,101206.75
2023-04-04T17:31:21.342Z,101209.09
2023-04-04T17:33:50.608Z,101205.97
2023-04-04T17:36:19.884Z,101203.81
2023-04-04T17:38:52.273Z,101209.47
2023-04-04T17:41:21.584Z,101203.50
2023-04-04T17:43:51.113Z,101214.28
2023-04-04T17:46:20.780Z,101210.19
2023-04-04T17:48:50.064Z,101213.25
2023-04-04T17:51:19.331Z,101214.78
2023-04-04T17:53:48.612Z,101210.56
2023-04-04T17:56:20.507Z,101213.88
2023-04-04T17:58:51.911Z,101210.78
2023-04-04T18:01:22.436Z,101215.06
2023-04-04T18:03:51.754Z,101211.47
2023-04-04T18:06:21.258Z,101218.56
2023-04-04T18:10:38.272Z,101212.84
2023-04-04T18:13:07.562Z,101222.88
2023-04-04T18:15:37.008Z,101215.97
2023-04-04T18:18:06.537Z,101216.78
2023-04-04T18:20:36.349Z,101222.38
2023-04-04T18:23:06.147Z,101226.31
2023-04-04T18:25:37.975Z,101233.03
2023-04-04T18:28:07.480Z,101237.47
2023-04-04T18:30:37.515Z,101238.13
2023-04-04T18:33:06.953Z,101223.63
2023-04-04T18:35:36.396Z,101231.38
2023-04-04T18:38:06.320Z,101232.53
2023-04-04T18:40:38.367Z,101228.88
2023-04-04T18:43:08.801Z,101236.44
2023-04-04T18:45:40.558Z,101244.69
2023-04-04T18:48:11.922Z,101238.47
2023-04-04T18:50:42.053Z,101237.00
2023-04-04T18:53:11.681Z,101237.00
2023-04-04T18:55:43.529Z,101242.59
2023-04-04T18:58:13.191Z,101242.91
2023-04-04T19:00:42.780Z,101232.81
2023-04-04T19:03:13.333Z,101242.38
2023-04-04T19:05:42.712Z,101235.59
2023-04-04T19:08:13.200Z,101232.94
2023-04-04T19:10:45.074Z,101236.25
2023-04-04T19:13:14.593Z,101235.91
2023-04-04T19:15:44.400Z,101233.56
2023-04-04T19:18:13.699Z,101235.84
2023-04-04T19:20:43.741Z,101232.72
2023-04-04T19:23:13.111Z,101233.91
2023-04-04T19:25:44.943Z,101234.88
2023-04-04T19:28:14.248Z,101235.84
2023-04-04T19:30:44.816Z,101234.84
2023-04-04T19:33:14.274Z,101240.91
2023-04-04T19:35:50.959Z,101245.31
2023-04-04T19:38:22.162Z,101243.19
2023-04-04T19:40:54.338Z,101246.94
2023-04-04T19:43:23.862Z,101246.25
2023-04-04T19:45:53.551Z,101243.38
2023-04-04T19:48:37.958Z,101243.66
2023-04-04T19:51:08.882Z,101239.50
2023-04-04T19:53:38.207Z,101239.91
2023-04-04T19:56:12.007Z,101234.44
2023-04-04T19:58:41.419Z,101244.91
2023-04-04T20:01:11.075Z,101247.94
2023-04-04T20:03:40.941Z,101245.97
2023-04-04T20:06:10.825Z,101250.97
2023-04-04T20:08:44.203Z,101252.25
2023-04-04T20:11:16.316Z,101247.06
2023-04-04T20:13:46.243Z,101243.06
2023-04-04T20:16:15.789Z,101246.16
2023-04-04T20:18:45.820Z,101249.53
2023-04-04T20:21:16.427Z,101246.03
2023-04-04T20:23:47.121Z,101248.72
2023-04-04T20:26:39.337Z,101255.09
2023-04-04T20:29:11.565Z,101254.34
2023-04-04T20:31:41.876Z,101257.28
2023-04-04T20:34:11.907Z,101254.00
2023-04-04T20:36:41.527Z,101256.00
2023-04-04T20:39:10.801Z,101255.25
2023-04-04T20:41:40.065Z,101261.75
2023-04-04T20:44:19.636Z,101250.72
2023-04-04T20:46:48.902Z,101251.00
2023-04-04T20:49:18.187Z,101255.72
2023-04-04T20:51:47.524Z,101260.47
2023-04-04T20:54:16.811Z,101260.78
2023-04-04T20:56:52.596Z,101256.63
2023-04-04T20:59:34.180Z,101263.81
2023-04-04T21:02:08.552Z,101261.63
2023-04-04T21:04:38.381Z,101261.31
2023-04-04T21:07:08.143Z,101262.31
2023-04-04T21:09:37.448Z,101262.84
2023-04-04T21:12:06.883Z,101264.34
2023-04-04T21:14:39.465Z,101267.13
2023-04-04T21:17:09.572Z,101265.84
2023-04-04T21:19:38.864Z,101263.84
2023-04-04T21:22:08.805Z,101263.25
2023-04-04T21:24:38.195Z,101261.00
2023-04-04T21:27:08.762Z,101266.66
2023-04-04T21:29:40.617Z,101264.69
2023-04-04T21:32:09.868Z,101271.16
2023-04-04T21:34:39.237Z,101275.56
2023-04-04T21:37:11.800Z,101275.28
2023-04-04T21:39:41.207Z,101278.06
2023-04-04T21:42:10.677Z,101279.03
2023-04-04T21:44:42.560Z,101272.28
2023-04-04T21:47:12.974Z,101276.50
2023-04-04T21:49:43.160Z,101279.94
2023-04-04T21:52:12.395Z,101274.81
2023-04-04T21:54:41.655Z,101277.09
2023-04-04T21:57:11.457Z,101273.69
2023-04-04T21:59:43.313Z,101270.91
2023-04-04T22:02:12.638Z,101272.97
2023-04-04T22:04:42.020Z,101277.75
2023-04-04T22:07:11.586Z,101277.63
2023-04-04T22:09:43.110Z,101275.13
2023-04-04T22:12:14.839Z,101275.28
2023-04-04T22:14:50.933Z,101272.66
2023-04-04T22:17:23.286Z,101272.78
2023-04-04T22:19:59.036Z,101277.22
2023-04-04T22:22:29.793Z,101279.00
2023-04-04T22:25:03.681Z,101276.38
2023-04-04T22:27:33.221Z,101269.78
2023-04-04T22:30:05.100Z,101273.53
2023-04-04T22:32:34.622Z,101274.06
2023-04-04T22:35:04.015Z,101272.78
2023-04-04T22:37:33.276Z,101275.28
2023-04-04T22:40:02.577Z,101273.75
2023-04-04T22:42:31.849Z,101273.84
2023-04-04T22:45:01.167Z,101267.56
2023-04-04T22:47:33.038Z,101275.09
2023-04-04T22:50:04.857Z,101271.16
2023-04-04T22:52:34.794Z,101270.22
2023-04-04T22:55:05.310Z,101260.06
2023-04-04T22:57:34.615Z,101251.59
2023-04-04T23:00:06.026Z,101259.00
2023-04-04T23:02:37.919Z,101259.63
2023-04-04T23:05:08.316Z,101256.97
2023-04-04T23:07:38.297Z,101251.03
2023-04-04T23:10:07.890Z,101254.78
2023-04-04T23:12:37.199Z,101249.66
2023-04-04T23:15:06.979Z,101249.84
2023-04-04T23:17:39.105Z,101247.59
2023-04-04T23:20:10.573Z,101240.53
2023-04-04T23:22:39.943Z,101245.78
2023-04-04T23:25:09.434Z,101238.16
2023-04-04T23:27:38.679Z,101237.31
2023-04-04T23:30:09.891Z,101236.50
2023-04-04T23:32:42.326Z,101241.63
2023-04-04T23:35:12.469Z,101230.72
2023-04-04T23:37:41.724Z,101231.47
2023-04-04T23:40:11.606Z,101237.69
2023-04-04T23:42:40.862Z,101232.72
2023-04-04T23:45:11.739Z,101230.53
2023-04-04T23:47:43.668Z,101222.41
2023-04-04T23:50:13.271Z,101223.66
2023-04-04T23:52:42.795Z,101223.13
2023-04-04T23:55:12.382Z,101213.44
2023-04-04T23:57:43.721Z,101213.63
